createdAt,value
2023-04-29T00:03:48.399Z,98898.53
2023-04-29T00:08:53.486Z,98907.13
2023-04-29T00:13:57.018Z,98911.41
2023-04-29T00:19:00.944Z,98897.53
2023-04-29T00:24:06.232Z,98909.69
2023-04-29T00:29:09.836Z,98901.06
2023-04-29T00:34:13.333Z,98892.47
2023-04-29T00:39:18.226Z,98889.94
2023-04-29T00:44:21.414Z,98889.97
2023-04-29T00:49:24.847Z,98883.03
2023-04-29T00:54:29.960Z,98879.59
2023-04-29T00:59:33.518Z,98865.72
2023-04-29T01:04:37.192Z,98863.13
2023-04-29T01:09:54.953Z,98875.28
2023-04-29T01:15:07.076Z,98883.78
2023-04-29T01:20:11.778Z,98889.00
2023-04-29T01:25:16.794Z,98888.19
2023-04-29T01:30:30.213Z,98888.19
2023-04-29T01:35:47.606Z,98883.78
2023-04-29T01:41:01.006Z,98880.31
2023-04-29T01:46:06.116Z,98877.59
2023-04-29T01:51:09.631Z,98874.19
2023-04-29T01:56:14.495Z,98875.81
2023-04-29T02:01:17.791Z,98868.09
2023-04-29T02:06:21.266Z,98861.19
2023-04-29T02:11:26.295Z,98866.41
2023-04-29T02:16:29.855Z,98866.34
2023-04-29T02:21:35.330Z,98880.09
2023-04-29T02:26:40.331Z,98890.44
2023-04-29T02:31:43.910Z,98888.69
2023-04-29T02:36:47.496Z,98905.09
2023-04-29T02:41:55.834Z,98914.59
2023-04-29T02:46:59.420Z,98913.63
2023-04-29T02:52:02.887Z,98917.13
2023-04-29T02:57:08.178Z,98914.47
2023-04-29T03:02:11.881Z,98900.56
2023-04-29T03:07:17.577Z,98901.34
2023-04-29T03:12:22.532Z,98915.84
2023-04-29T03:17:25.764Z,98937.28
2023-04-29T03:22:29.197Z,98957.09
2023-04-29T03:27:34.177Z,98960.53
2023-04-29T03:32:37.693Z,98977.75
2023-04-29T03:37:44.527Z,98985.53
2023-04-29T03:42:49.658Z,98986.53
2023-04-29T03:47:53.634Z,99001.34
2023-04-29T03:52:57.989Z,99003.88
2023-04-29T03:58:03.081Z,99011.69
2023-04-29T04:03:06.707Z,99015.28
2023-04-29T04:08:11.074Z,99005.84
2023-04-29T04:13:16.049Z,99017.19
2023-04-29T04:18:19.711Z,99000.84
2023-04-29T04:23:23.241Z,99019.97
2023-04-29T04:28:28.121Z,99020.09
2023-04-29T04:33:31.516Z,99019.38
2023-04-29T04:38:35.545Z,99013.38
2023-04-29T04:43:41.682Z,99019.47
2023-04-29T04:48:45.216Z,99021.25
2023-04-29T04:53:48.797Z,99012.69
2023-04-29T04:58:53.693Z,99005.00
2023-04-29T05:03:57.648Z,99014.59
2023-04-29T05:09:01.260Z,99018.94
2023-04-29T05:14:06.550Z,99019.84
2023-04-29T05:19:10.068Z,99017.25
2023-04-29T05:24:13.545Z,99024.19
2023-04-29T05:29:18.564Z,99005.22
2023-04-29T05:34:22.162Z,99026.81
2023-04-29T05:39:26.957Z,99023.34
2023-04-29T05:44:31.850Z,99022.50
2023-04-29T05:49:35.115Z,99027.66
2023-04-29T05:54:38.675Z,99035.38
2023-04-29T05:59:43.559Z,99029.19
2023-04-29T06:04:47.983Z,99038.63
2023-04-29T06:09:51.995Z,99046.41
2023-04-29T06:14:57.130Z,99054.63
2023-04-29T06:20:00.603Z,99050.69
2023-04-29T06:25:04.039Z,99063.13
2023-04-29T06:30:10.465Z,99064.59
2023-04-29T06:35:13.960Z,99065.47
2023-04-29T06:40:17.495Z,99070.56
2023-04-29T06:45:23.853Z,99070.59
2023-04-29T06:50:28.198Z,99071.13
2023-04-29T06:55:31.731Z,99075.25
2023-04-29T07:00:36.934Z,99088.41
2023-04-29T07:05:42.046Z,99096.97
2023-04-29T07:10:45.570Z,99098.59
2023-04-29T07:15:50.564Z,99104.19
2023-04-29T07:20:55.945Z,99092.38
2023-04-29T07:25:59.396Z,99105.53
2023-04-29T07:31:04.506Z,99107.38
2023-04-29T07:36:09.213Z,99111.50
2023-04-29T07:41:12.764Z,99116.06
2023-04-29T07:46:18.438Z,99119.69
2023-04-29T07:51:21.978Z,99121.63
2023-04-29T07:56:26.195Z,99114.78
2023-04-29T08:01:31.070Z,99136.06
2023-04-29T08:06:34.717Z,99138.56
2023-04-29T08:11:40.078Z,99145.31
2023-04-29T08:16:44.983Z,99148.75
2023-04-29T08:21:48.494Z,99149.34
2023-04-29T08:26:52.612Z,99157.13
2023-04-29T08:31:57.639Z,99156.97
2023-04-29T08:37:01.399Z,99162.47
2023-04-29T08:42:10.062Z,99158.75
2023-04-29T08:47:16.536Z,99155.97
2023-04-29T08:52:19.988Z,99149.78
2023-04-29T08:57:26.412Z,99149.28
2023-04-29T09:02:31.438Z,99158.75
2023-04-29T09:07:36.293Z,99165.97
2023-04-29T09:12:39.951Z,99165.34
2023-04-29T09:17:46.668Z,99180.75
2023-04-29T09:22:50.650Z,99170.63
2023-04-29T09:27:54.663Z,99175.13
2023-04-29T09:33:10.202Z,99180.56
2023-04-29T09:38:15.602Z,99195.44
2023-04-29T09:43:21.645Z,99188.81
2023-04-29T09:48:35.630Z,99183.63
2023-04-29T09:53:39.199Z,99192.22
2023-04-29T09:58:42.708Z,99185.38
2023-04-29T10:03:49.992Z,99173.78
2023-04-29T10:08:53.687Z,99213.41
2023-04-29T10:13:57.998Z,99207.00
2023-04-29T10:19:08.524Z,99208.09
2023-04-29T10:24:13.949Z,99210.41
2023-04-29T10:29:19.734Z,99216.06
2023-04-29T10:34:25.930Z,99212.34
2023-04-29T10:39:37.109Z,99236.53
2023-04-29T10:45:20.123Z,99231.44
2023-04-29T10:50:25.145Z,99238.19
2023-04-29T10:55:28.846Z,99236.91
2023-04-29T11:00:33.449Z,99236.19
2023-04-29T11:05:38.538Z,99235.69
2023-04-29T11:10:44.008Z,99243.94
2023-04-29T11:15:47.614Z,99247.09
2023-04-29T11:21:20.047Z,99250.84
2023-04-29T11:26:25.237Z,99251.66
2023-04-29T11:31:30.376Z,99251.06
2023-04-29T11:36:35.918Z,99257.28
2023-04-29T11:41:40.003Z,99253.19
2023-04-29T11:46:43.485Z,99266.25
2023-04-29T11:51:48.483Z,99256.97
2023-04-29T11:56:54.614Z,99268.16
2023-04-29T12:01:59.866Z,99266.31
2023-04-29T12:07:06.125Z,99254.53
2023-04-29T12:12:09.822Z,99258.09
2023-04-29T12:17:13.828Z,99247.63
2023-04-29T12:22:20.865Z,99244.75
2023-04-29T12:27:26.712Z,99239.28
2023-04-29T12:32:30.260Z,99240.28
2023-04-29T12:37:35.429Z,99241.13
2023-04-29T12:42:41.557Z,99249.91
2023-04-29T12:47:46.739Z,99249.25
2023-04-29T12:52:51.994Z,99251.44
2023-04-29T12:57:55.508Z,99250.72
2023-04-29T13:02:59.348Z,99255.50
2023-04-29T13:08:06.076Z,99254.84
2023-04-29T13:13:09.789Z,99259.69
2023-04-29T13:18:13.308Z,99257.00
2023-04-29T13:23:18.279Z,99255.25
2023-04-29T13:28:22.398Z,99260.13
2023-04-29T13:33:25.929Z,99264.50
2023-04-29T13:38:30.951Z,99253.78
2023-04-29T13:43:38.439Z,99253.78
2023-04-29T13:49:17.297Z,99254.72
2023-04-29T13:59:40.010Z,99247.03
2023-04-29T14:04:39.522Z,99247.44
2023-04-29T14:09:44.652Z,99252.72
2023-04-29T14:14:48.112Z,99250.13
2023-04-29T14:19:51.746Z,99256.28
2023-04-29T14:24:56.831Z,99242.25
2023-04-29T14:30:00.371Z,99250.19
2023-04-29T14:35:03.890Z,99252.97
2023-04-29T14:40:10.956Z,99246.00
2023-04-29T14:45:14.502Z,99242.28
2023-04-29T14:50:18.488Z,99245.84
2023-04-29T14:55:25.996Z,99253.97
2023-04-29T15:00:29.444Z,99250.50
2023-04-29T15:05:33.100Z,99243.38
2023-04-29T15:10:38.097Z,99251.91
2023-04-29T15:15:41.651Z,99256.16
2023-04-29T15:20:45.185Z,99255.16
2023-04-29T15:25:50.166Z,99260.03
2023-04-29T15:30:53.733Z,99254.63
2023-04-29T15:35:57.995Z,99260.44
2023-04-29T15:41:03.735Z,99261.78
2023-04-29T15:46:07.462Z,99264.97
2023-04-29T15:51:13.974Z,99267.16
2023-04-29T15:56:19.142Z,99274.38
2023-04-29T16:01:22.678Z,99264.22
2023-04-29T16:06:27.751Z,99275.50
2023-04-29T16:11:32.771Z,99278.97
2023-04-29T16:16:36.287Z,99286.81
2023-04-29T16:21:40.007Z,99288.75
2023-04-29T16:26:44.996Z,99301.78
2023-04-29T16:31:48.609Z,99307.09
2023-04-29T16:36:52.767Z,99310.66
2023-04-29T16:41:57.761Z,99305.63
2023-04-29T16:47:01.329Z,99305.03
2023-04-29T16:52:05.810Z,99315.63
2023-04-29T16:57:10.860Z,99318.34
2023-04-29T17:02:14.428Z,99324.59
2023-04-29T17:07:19.595Z,99323.84
2023-04-29T17:12:24.500Z,99326.50
2023-04-29T17:17:28.003Z,99339.59
2023-04-29T17:22:32.897Z,99351.78
2023-04-29T17:27:37.590Z,99351.78
2023-04-29T17:32:41.512Z,99353.53
2023-04-29T17:37:45.100Z,99357.81
2023-04-29T17:42:50.500Z,99365.53
2023-04-29T17:47:54.300Z,99363.78
2023-04-29T17:52:57.928Z,99372.31
2023-04-29T17:58:02.785Z,99378.25
2023-04-29T18:03:06.482Z,99389.41
2023-04-29T18:08:10.009Z,99392.75
2023-04-29T18:13:14.974Z,99404.75
2023-04-29T18:18:18.157Z,99395.97
2023-04-29T18:23:22.636Z,99403.63
2023-04-29T18:28:29.133Z,99406.09
2023-04-29T18:33:32.586Z,99418.03
2023-04-29T18:38:36.270Z,99421.38
2023-04-29T18:43:41.301Z,99422.09
2023-04-29T18:48:44.898Z,99440.09
2023-04-29T18:53:48.473Z,99441.66
2023-04-29T18:58:53.531Z,99453.59
2023-04-29T19:03:57.710Z,99450.09
2023-04-29T19:09:01.448Z,99447.31
2023-04-29T19:14:06.663Z,99454.03
2023-04-29T19:19:10.487Z,99462.44
2023-04-29T19:24:14.011Z,99458.81
2023-04-29T19:29:19.073Z,99470.72
2023-04-29T19:34:22.547Z,99467.97
2023-04-29T19:39:26.969Z,99475.56
2023-04-29T19:44:32.117Z,99475.53
2023-04-29T19:49:35.702Z,99477.09
2023-04-29T19:54:41.003Z,99486.44
2023-04-29T19:59:46.132Z,99486.31
2023-04-29T20:04:49.674Z,99488.72
2023-04-29T20:09:53.552Z,99488.56
2023-04-29T20:14:59.003Z,99479.88
2023-04-29T20:20:02.628Z,99452.59
2023-04-29T20:25:08.069Z,99483.81
2023-04-29T20:30:13.372Z,99491.44
2023-04-29T20:35:17.028Z,99496.41
2023-04-29T20:40:20.918Z,99487.38
2023-04-29T20:45:26.130Z,99491.34
2023-04-29T20:50:29.674Z,99500.28
2023-04-29T20:55:33.275Z,99489.19
2023-04-29T21:00:38.341Z,99493.50
2023-04-29T21:05:41.993Z,99496.75
2023-04-29T21:10:45.696Z,99496.50
2023-04-29T21:15:51.065Z,99499.00
2023-04-29T21:20:54.705Z,99495.38
2023-04-29T21:25:58.148Z,99497.00
2023-04-29T21:31:03.117Z,99490.06
2023-04-29T21:36:06.814Z,99489.06
2023-04-29T21:41:19.441Z,99469.72
2023-04-29T21:46:25.017Z,99494.84
2023-04-29T21:51:29.686Z,99493.78
2023-04-29T21:56:33.286Z,99482.47
2023-04-29T22:01:48.600Z,99486.69
2023-04-29T22:06:52.387Z,99480.34
2023-04-29T22:11:55.876Z,99482.72
2023-04-29T22:17:00.765Z,99470.53
2023-04-29T22:22:04.086Z,99428.59
2023-04-29T22:27:07.502Z,99478.94
2023-04-29T22:32:12.498Z,99484.91
2023-04-29T22:37:16.256Z,99484.19
2023-04-29T22:42:19.758Z,99490.00
2023-04-29T22:47:24.785Z,99469.47
2023-04-29T22:52:28.324Z,99468.56
2023-04-29T22:57:31.898Z,99471.97
2023-04-29T23:02:36.778Z,99466.78
2023-04-29T23:07:39.953Z,99469.41
2023-04-29T23:12:43.392Z,99469.88
2023-04-29T23:17:48.312Z,99471.59
2023-04-29T23:22:51.604Z,99476.31
2023-04-29T23:27:55.802Z,99472.84
2023-04-29T23:33:00.894Z,99473.66
2023-04-29T23:38:04.650Z,99470.91
2023-04-29T23:43:08.145Z,99471.69
2023-04-29T23:48:13.491Z,99469.97
2023-04-29T23:53:17.153Z,99459.53
2023-04-29T23:58:20.639Z,99475.41
